Time,TemperatureF,DewpointF,PressureIn,WindDirection,WindDirectionDegrees,WindSpeedMPH,WindSpeedGustMPH,Humidity,HourlyPrecipIn,Conditions,Clouds,dailyrainin,SoftwareType,DateUTC
2013-03-20 00:00:00,28.0,21.0,29.86,West,270,13.0,-999.0,74,-99.99,,,-99.99,,2013-03-20 00:00:00,
2013-03-20 00:21:00,28.0,21.0,29.86,West,270,13.0,-999.0,74,-99.99,,,-99.99,,2013-03-20 00:21:00,
2013-03-20 00:32:00,28.0,21.0,29.86,West,270,13.0,-999.0,74,-99.99,,,-99.99,,2013-03-20 00:32:00,
2013-03-20 00:42:00,28.0,21.0,29.86,West,270,13.0,-999.0,74,-99.99,,,-99.99,,2013-03-20 00:42:00,
2013-03-20 00:52:00,28.0,21.0,29.86,West,270,13.0,-999.0,74,-99.99,,,-99.99,,2013-03-20 00:52:00,
2013-03-20 06:00:00,25.0,19.0,29.89,West,270,10.0,-999.0,76,-99.99,,,-99.99,,2013-03-20 06:00:00,
2013-03-20 06:21:00,25.0,19.0,29.89,West,270,10.0,-999.0,76,-99.99,,,-99.99,,2013-03-20 06:21:00,
2013-03-20 06:31:00,25.0,19.0,29.89,West,270,10.0,-999.0,76,-99.99,,,-99.99,,2013-03-20 06:31:00,
2013-03-20 06:42:00,25.0,19.0,29.89,West,270,10.0,-999.0,76,-99.99,,,-99.99,,2013-03-20 06:42:00,
2013-03-20 06:51:00,25.0,19.0,29.89,West,270,10.0,-999.0,76,-99.99,,,-99.99,,2013-03-20 06:51:00,
2013-03-20 12:00:00,26.0,18.0,29.88,West,270,11.0,-999.0,71,-99.99,,,-99.99,,2013-03-20 12:00:00,
2013-03-20 12:31:00,26.0,18.0,29.88,West,270,11.0,-999.0,71,-99.99,,,-99.99,,2013-03-20 12:31:00,
2013-03-20 12:42:00,26.0,18.0,29.88,West,270,11.0,-999.0,71,-99.99,,,-99.99,,2013-03-20 12:42:00,
2013-03-20 12:51:00,26.0,18.0,29.88,West,270,11.0,-999.0,71,-99.99,,,-99.99,,2013-03-20 12:51:00,
2013-03-20 14:00:00,28.0,18.0,29.88,ESE,110,1.0,-999.0,67,-99.99,,,-99.99,,2013-03-20 14:00:00,
2013-03-20 14:21:00,28.0,18.0,29.88,ESE,110,1.0,-999.0,67,-99.99,,,-99.99,,2013-03-20 14:21:00,
2013-03-20 14:31:00,28.0,18.0,29.88,ESE,110,1.0,-999.0,67,-99.99,,,-99.99,,2013-03-20 14:31:00,
2013-03-20 14:41:00,28.0,18.0,29.88,ESE,110,1.0,-999.0,67,-99.99,,,-99.99,,2013-03-20 14:41:00,
2013-03-20 14:51:00,28.0,18.0,29.88,ESE,110,1.0,-999.0,67,-99.99,,,-99.99,,2013-03-20 14:51:00,
2013-03-20 15:00:00,27.0,17.0,29.88,WSW,250,13.0,-999.0,64,-99.99,,,-99.99,,2013-03-20 15:00:00,
2013-03-20 15:21:00,27.0,17.0,29.88,WSW,250,13.0,-999.0,64,-99.99,,,-99.99,,2013-03-20 15:21:00,
2013-03-20 15:32:00,27.0,17.0,29.88,WSW,250,13.0,-999.0,64,-99.99,,,-99.99,,2013-03-20 15:32:00,
2013-03-20 15:42:00,27.0,17.0,29.88,WSW,250,13.0,-999.0,64,-99.99,,,-99.99,,2013-03-20 15:42:00,
2013-03-20 15:52:00,27.0,17.0,29.88,WSW,250,13.0,-999.0,64,-99.99,,,-99.99,,2013-03-20 15:52:00,
2013-03-20 16:00:00,29.0,16.0,29.24,SW,230,14.0,-999.0,59,-99.99,,,-99.99,,2013-03-20 16:00:00,
2013-03-20 16:22:00,29.0,16.0,29.24,SW,230,14.0,-999.0,59,-99.99,,,-99.99,,2013-03-20 16:22:00,
2013-03-20 16:32:00,29.0,16.0,29.24,SW,230,14.0,-999.0,59,-99.99,,,-99.99,,2013-03-20 16:32:00,
2013-03-20 16:42:00,29.0,16.0,29.24,SW,230,14.0,-999.0,59,-99.99,,,-99.99,,2013-03-20 16:42:00,
2013-03-20 16:52:00,29.0,16.0,29.24,SW,230,14.0,-999.0,59,-99.99,,,-99.99,,2013-03-20 16:52:00,
2013-03-20 17:00:00,29.0,16.0,-100.00,WSW,250,8.0,-999.0,56,-99.99,,,-99.99,,2013-03-20 17:00:00,
2013-03-20 17:21:00,29.0,16.0,-100.00,WSW,250,8.0,-999.0,56,-99.99,,,-99.99,,2013-03-20 17:21:00,
2013-03-20 17:32:00,29.0,16.0,-100.00,WSW,250,8.0,-999.0,56,-99.99,,,-99.99,,2013-03-20 17:32:00,
2013-03-20 17:42:00,29.0,16.0,-100.00,WSW,250,8.0,-999.0,56,-99.99,,,-99.99,,2013-03-20 17:42:00,
2013-03-20 17:52:00,29.0,16.0,-100.00,WSW,250,8.0,-999.0,56,-99.99,,,-99.99,,2013-03-20 17:52:00,
2013-03-20 18:00:00,30.0,16.0,-100.00,West,260,8.0,-999.0,55,-99.99,,,-99.99,,2013-03-20 18:00:00,
2013-03-20 18:21:00,30.0,16.0,-100.00,West,260,8.0,-999.0,55,-99.99,,,-99.99,,2013-03-20 18:21:00,
2013-03-20 18:32:00,30.0,16.0,-100.00,West,260,8.0,-999.0,55,-99.99,,,-99.99,,2013-03-20 18:32:00,
2013-03-20 18:42:00,30.0,16.0,-100.00,West,260,8.0,-999.0,55,-99.99,,,-99.99,,2013-03-20 18:42:00,
2013-03-20 18:52:00,30.0,16.0,-100.00,West,260,8.0,-999.0,55,-99.99,,,-99.99,,2013-03-20 18:52:00,
2013-03-20 19:00:00,29.0,15.0,-100.00,WSW,240,14.0,-999.0,55,-99.99,,,-99.99,,2013-03-20 19:00:00,
2013-03-20 19:21:00,29.0,15.0,-100.00,WSW,240,14.0,-999.0,55,-99.99,,,-99.99,,2013-03-20 19:21:00,
2013-03-20 19:31:00,29.0,15.0,-100.00,WSW,240,14.0,-999.0,55,-99.99,,,-99.99,,2013-03-20 19:31:00,
2013-03-20 19:41:00,29.0,15.0,-100.00,WSW,240,14.0,-999.0,55,-99.99,,,-99.99,,2013-03-20 19:41:00,
2013-03-20 19:52:00,29.0,15.0,-100.00,WSW,240,14.0,-999.0,55,-99.99,,,-99.99,,2013-03-20 19:52:00,
2013-03-20 20:00:00,30.0,13.0,-100.00,West,270,8.0,-999.0,47,-99.99,,,-99.99,,2013-03-20 20:00:00,
2013-03-20 20:21:00,30.0,13.0,-100.00,West,270,8.0,-999.0,47,-99.99,,,-99.99,,2013-03-20 20:21:00,
2013-03-20 20:31:00,30.0,13.0,-100.00,West,270,8.0,-999.0,47,-99.99,,,-99.99,,2013-03-20 20:31:00,
2013-03-20 20:41:00,30.0,13.0,-100.00,West,270,8.0,-999.0,47,-99.99,,,-99.99,,2013-03-20 20:41:00,
2013-03-20 20:52:00,30.0,13.0,-100.00,West,270,8.0,-999.0,47,-99.99,,,-99.99,,2013-03-20 20:52:00,
2013-03-20 21:00:00,29.0,19.0,-100.00,West,270,6.0,-999.0,67,-99.99,,,-99.99,,2013-03-20 21:00:00,
2013-03-20 21:21:00,29.0,19.0,-100.00,West,270,6.0,-999.0,67,-99.99,,,-99.99,,2013-03-20 21:21:00,
2013-03-20 21:32:00,29.0,19.0,-100.00,West,270,6.0,-999.0,67,-99.99,,,-99.99,,2013-03-20 21:32:00,
2013-03-20 21:41:00,29.0,19.0,-100.00,West,270,6.0,-999.0,67,-99.99,,,-99.99,,2013-03-20 21:41:00,
2013-03-20 21:52:00,29.0,19.0,-100.00,West,270,6.0,-999.0,67,-99.99,,,-99.99,,2013-03-20 21:52:00,
2013-03-20 22:00:00,30.0,17.0,29.76,WNW,290,10.0,-999.0,59,-99.99,,,-99.99,,2013-03-20 22:00:00,
2013-03-20 22:22:00,30.0,17.0,29.76,WNW,290,10.0,-999.0,59,-99.99,,,-99.99,,2013-03-20 22:22:00,
2013-03-20 22:32:00,30.0,17.0,29.76,WNW,290,10.0,-999.0,59,-99.99,,,-99.99,,2013-03-20 22:32:00,
2013-03-20 22:41:00,30.0,17.0,29.76,WNW,290,10.0,-999.0,59,-99.99,,,-99.99,,2013-03-20 22:41:00,
2013-03-20 22:52:00,30.0,17.0,29.76,WNW,290,10.0,-999.0,59,-99.99,,,-99.99,,2013-03-20 22:52:00,
2013-03-20 23:00:00,30.0,12.0,29.76,West,270,8.0,-999.0,47,-99.99,,,-99.99,,2013-03-20 23:00:00,
2013-03-20 23:22:00,30.0,12.0,29.76,West,270,8.0,-999.0,47,-99.99,,,-99.99,,2013-03-20 23:22:00,
2013-03-20 23:31:00,30.0,12.0,29.76,West,270,8.0,-999.0,47,-99.99,,,-99.99,,2013-03-20 23:31:00,
2013-03-20 23:42:00,30.0,12.0,29.76,West,270,8.0,-999.0,47,-99.99,,,-99.99,,2013-03-20 23:42:00,
2013-03-20 23:52:00,30.0,12.0,29.76,West,270,8.0,-999.0,47,-99.99,,,-99.99,,2013-03-20 23:52:00,